createdAt,value
2022-11-09T00:00:24.515Z,5.78
2022-11-09T00:02:29.889Z,7.80
2022-11-09T00:04:39.166Z,4.60
2022-11-09T00:06:44.163Z,4.68
2022-11-09T00:08:49.552Z,7.57
2022-11-09T00:10:55.413Z,6.35
2022-11-09T00:13:01.754Z,8.05
2022-11-09T00:15:07.641Z,6.72
2022-11-09T00:17:12.870Z,8.63
2022-11-09T00:19:18.159Z,6.00
2022-11-09T00:21:27.938Z,5.43
2022-11-09T00:23:32.966Z,5.20
2022-11-09T00:25:38.785Z,5.53
2022-11-09T00:27:43.827Z,5.30
2022-11-09T00:29:48.795Z,5.05
2022-11-09T00:31:57.073Z,3.90
2022-11-09T00:34:02.138Z,3.35
2022-11-09T00:36:10.090Z,5.60
2022-11-09T00:38:18.113Z,7.55
2022-11-09T00:40:23.064Z,7.20
2022-11-09T00:42:28.754Z,6.88
2022-11-09T00:44:34.125Z,4.43
2022-11-09T00:46:39.114Z,6.75
2022-11-09T00:48:45.401Z,5.78
2022-11-09T00:50:53.022Z,6.47
2022-11-09T00:52:58.428Z,5.40
2022-11-09T00:55:08.298Z,7.55
2022-11-09T00:57:17.024Z,6.65
2022-11-09T00:59:23.949Z,4.38
2022-11-09T01:01:29.436Z,6.40
2022-11-09T01:03:35.628Z,6.22
2022-11-09T01:05:41.715Z,6.15
2022-11-09T01:07:48.232Z,9.55
2022-11-09T01:09:53.994Z,5.93
2022-11-09T01:12:05.503Z,5.40
2022-11-09T01:14:10.573Z,4.72
2022-11-09T01:16:19.831Z,6.13
2022-11-09T01:18:25.453Z,4.85
2022-11-09T01:22:38.599Z,4.47
2022-11-09T01:24:43.982Z,8.25
2022-11-09T01:26:49.014Z,7.35
2022-11-09T01:28:57.525Z,5.03
2022-11-09T01:31:06.701Z,7.22
2022-11-09T01:33:13.964Z,6.95
2022-11-09T01:35:19.206Z,5.18
2022-11-09T01:37:24.606Z,8.48
2022-11-09T01:39:30.511Z,5.45
2022-11-09T01:41:35.549Z,4.72
2022-11-09T01:43:42.964Z,5.82
2022-11-09T01:45:54.995Z,7.43
2022-11-09T01:48:07.263Z,7.43
2022-11-09T01:50:14.334Z,5.78
2022-11-09T01:52:29.546Z,6.53
2022-11-09T01:54:42.068Z,8.13
2022-11-09T01:56:51.206Z,8.68
2022-11-09T01:59:02.340Z,6.95
2022-11-09T02:01:13.516Z,11.38
2022-11-09T02:03:23.912Z,9.20
2022-11-09T02:05:35.910Z,8.45
2022-11-09T02:07:43.131Z,11.75
2022-11-09T02:09:54.364Z,7.57
2022-11-09T02:12:00.430Z,9.38
2022-11-09T02:14:07.086Z,6.78
2022-11-09T02:16:17.783Z,7.07
2022-11-09T02:18:24.201Z,6.05
2022-11-09T02:20:32.480Z,8.07
2022-11-09T02:22:37.872Z,4.30
2022-11-09T02:24:43.584Z,5.90
2022-11-09T02:26:52.966Z,7.85
2022-11-09T02:29:01.041Z,7.32
2022-11-09T02:31:13.679Z,6.10
2022-11-09T02:33:21.792Z,4.95
2022-11-09T02:35:27.032Z,7.72
2022-11-09T02:37:40.498Z,6.78
2022-11-09T02:39:47.557Z,6.22
2022-11-09T02:41:57.911Z,5.65
2022-11-09T02:44:08.886Z,4.82
2022-11-09T02:46:14.603Z,5.57
2022-11-09T02:48:19.784Z,5.10
2022-11-09T02:50:25.880Z,6.63
2022-11-09T02:52:30.921Z,7.32
2022-11-09T02:54:39.145Z,5.78
2022-11-09T02:58:49.625Z,6.25
2022-11-09T03:00:56.617Z,9.02
2022-11-09T03:03:03.755Z,6.93
2022-11-09T03:05:10.429Z,6.10
2022-11-09T03:07:19.280Z,5.35
2022-11-09T03:09:24.934Z,7.40
2022-11-09T03:11:33.232Z,8.38
2022-11-09T03:13:38.627Z,5.70
2022-11-09T03:17:52.212Z,7.80
2022-11-09T03:19:58.936Z,5.00
2022-11-09T03:22:05.109Z,8.45
2022-11-09T03:24:11.285Z,7.43
2022-11-09T03:28:25.858Z,8.05
2022-11-09T03:30:32.237Z,7.82
2022-11-09T03:32:37.874Z,6.75
2022-11-09T03:34:44.692Z,7.63
2022-11-09T03:36:51.737Z,8.00
2022-11-09T03:38:58.423Z,8.50
2022-11-09T03:41:05.881Z,6.68
2022-11-09T03:43:13.509Z,7.35
2022-11-09T03:45:21.852Z,8.52
2022-11-09T03:47:26.832Z,5.95
2022-11-09T03:49:32.446Z,8.68
2022-11-09T03:51:38.016Z,9.40
2022-11-09T03:53:43.005Z,12.43
2022-11-09T03:55:48.858Z,10.35
2022-11-09T03:57:54.164Z,8.98
2022-11-09T03:59:59.875Z,8.98
2022-11-09T04:02:07.541Z,10.43
2022-11-09T04:04:13.109Z,6.70
2022-11-09T04:06:18.412Z,9.90
2022-11-09T04:08:23.909Z,8.10
2022-11-09T04:10:30.705Z,4.03
2022-11-09T04:12:36.042Z,4.43
2022-11-09T04:14:41.489Z,5.65
2022-11-09T04:16:46.775Z,5.25
2022-11-09T04:18:54.493Z,2.40
2022-11-09T04:21:01.577Z,4.75
2022-11-09T04:23:09.274Z,5.10
2022-11-09T04:25:14.316Z,4.53
2022-11-09T04:27:19.425Z,5.20
2022-11-09T04:29:25.184Z,6.38
2022-11-09T04:31:30.585Z,3.58
2022-11-09T04:33:35.673Z,6.68
2022-11-09T04:35:43.672Z,6.75
2022-11-09T04:37:57.376Z,5.90
2022-11-09T04:40:02.696Z,4.38
2022-11-09T04:42:08.144Z,4.20
2022-11-09T04:44:13.313Z,3.63
2022-11-09T04:46:18.742Z,4.70
2022-11-09T04:48:24.166Z,4.22
2022-11-09T04:50:29.879Z,6.47
2022-11-09T04:52:37.733Z,4.13
2022-11-09T04:54:42.796Z,7.07
2022-11-09T04:56:47.815Z,3.05
2022-11-09T04:58:53.336Z,3.55
2022-11-09T05:01:04.303Z,4.05
2022-11-09T05:03:11.022Z,2.80
2022-11-09T05:05:17.045Z,4.90
2022-11-09T05:07:22.522Z,2.83
2022-11-09T05:09:30.766Z,2.58
2022-11-09T05:11:37.181Z,2.28
2022-11-09T05:13:42.308Z,3.58
2022-11-09T05:15:48.128Z,4.70
2022-11-09T05:17:53.177Z,4.53
2022-11-09T05:19:59.164Z,2.67
2022-11-09T05:22:24.578Z,6.28
2022-11-09T05:24:30.069Z,2.70
2022-11-09T05:26:37.373Z,3.65
2022-11-09T05:28:43.308Z,2.45
2022-11-09T05:30:48.389Z,5.30
2022-11-09T05:32:54.397Z,2.20
2022-11-09T05:34:59.463Z,4.35
2022-11-09T05:37:04.854Z,2.83
2022-11-09T05:39:11.328Z,3.35
2022-11-09T05:41:20.098Z,2.42
2022-11-09T05:43:25.837Z,3.03
2022-11-09T05:45:46.245Z,3.17
2022-11-09T05:47:51.275Z,4.75
2022-11-09T05:49:56.800Z,3.55
2022-11-09T05:52:01.874Z,2.30
2022-11-09T05:54:07.880Z,3.25
2022-11-09T05:56:15.887Z,1.98
2022-11-09T06:00:29.637Z,3.30
2022-11-09T06:02:35.604Z,3.00
2022-11-09T06:04:41.021Z,2.33
2022-11-09T06:06:46.758Z,2.53
2022-11-09T06:08:53.084Z,4.22
2022-11-09T06:11:02.352Z,3.08
2022-11-09T06:13:07.789Z,4.25
2022-11-09T06:15:15.687Z,2.95
2022-11-09T06:17:20.782Z,1.77
2022-11-09T06:19:25.802Z,1.80
2022-11-09T06:21:31.030Z,1.65
2022-11-09T06:23:36.607Z,2.47
2022-11-09T06:25:42.518Z,4.43
2022-11-09T06:27:47.821Z,1.67
2022-11-09T06:29:53.081Z,1.73
2022-11-09T06:32:01.055Z,1.60
2022-11-09T06:34:06.526Z,2.72
2022-11-09T06:36:13.017Z,1.85
2022-11-09T06:38:18.206Z,1.42
2022-11-09T06:40:23.796Z,1.90
2022-11-09T06:42:29.261Z,1.60
2022-11-09T06:44:36.881Z,3.20
2022-11-09T06:46:42.227Z,3.28
2022-11-09T06:48:54.382Z,2.58
2022-11-09T06:51:03.604Z,4.78
2022-11-09T06:53:12.008Z,4.68
2022-11-09T06:55:17.965Z,2.58
2022-11-09T06:57:23.003Z,2.65
2022-11-09T06:59:28.463Z,5.97
2022-11-09T07:01:35.343Z,3.58
2022-11-09T07:03:41.140Z,1.50
2022-11-09T07:05:50.121Z,2.92
2022-11-09T07:07:55.260Z,2.15
2022-11-09T07:10:00.708Z,2.15
2022-11-09T07:12:05.753Z,1.60
2022-11-09T07:14:11.103Z,2.00
2022-11-09T07:16:17.392Z,3.72
2022-11-09T07:18:22.440Z,1.75
2022-11-09T07:20:28.345Z,2.67
2022-11-09T07:22:39.859Z,2.75
2022-11-09T07:24:45.352Z,1.77
2022-11-09T07:26:51.277Z,1.90
2022-11-09T07:28:57.091Z,1.80
2022-11-09T07:31:02.318Z,3.67
2022-11-09T07:33:14.058Z,2.55
2022-11-09T07:35:19.407Z,1.95
2022-11-09T07:37:24.474Z,2.13
2022-11-09T07:39:32.591Z,2.33
2022-11-09T07:41:37.665Z,1.13
2022-11-09T07:43:42.673Z,1.40
2022-11-09T07:45:48.127Z,2.00
2022-11-09T07:47:57.328Z,2.35
2022-11-09T07:50:02.655Z,2.13
2022-11-09T07:52:08.004Z,2.17
2022-11-09T07:54:14.238Z,3.60
2022-11-09T07:56:21.888Z,2.42
2022-11-09T07:58:27.004Z,4.93
2022-11-09T08:00:34.954Z,3.53
2022-11-09T08:02:40.788Z,4.43
2022-11-09T08:04:46.484Z,5.05
2022-11-09T08:06:54.994Z,4.53
2022-11-09T08:11:05.220Z,2.22
2022-11-09T08:13:16.643Z,3.10
2022-11-09T08:15:22.331Z,4.03
2022-11-09T08:17:27.405Z,2.55
2022-11-09T08:19:33.276Z,2.85
2022-11-09T08:21:39.800Z,2.05
2022-11-09T08:23:45.288Z,2.45
2022-11-09T08:25:51.339Z,4.93
2022-11-09T08:27:58.452Z,3.35
2022-11-09T08:30:07.396Z,2.72
2022-11-09T08:32:12.451Z,3.13
2022-11-09T08:34:17.891Z,2.65
2022-11-09T08:36:26.084Z,2.00
2022-11-09T08:38:33.221Z,1.88
2022-11-09T08:40:38.698Z,1.92
2022-11-09T08:42:43.767Z,2.00
2022-11-09T08:44:48.818Z,1.52
2022-11-09T08:46:56.473Z,2.10
2022-11-09T08:49:02.138Z,1.95
2022-11-09T08:51:07.333Z,2.00
2022-11-09T08:53:13.740Z,1.58
2022-11-09T08:55:19.300Z,1.45
2022-11-09T08:57:24.705Z,1.50
2022-11-09T08:59:29.788Z,2.95
2022-11-09T09:01:34.890Z,2.17
2022-11-09T09:03:42.709Z,2.35
2022-11-09T09:05:48.490Z,2.50
2022-11-09T09:07:53.534Z,3.97
2022-11-09T09:09:58.554Z,1.98
2022-11-09T09:12:04.082Z,2.55
2022-11-09T09:14:09.334Z,3.53
2022-11-09T09:16:16.832Z,1.80
2022-11-09T09:18:22.255Z,2.00
2022-11-09T09:20:31.406Z,2.22
2022-11-09T09:22:36.761Z,2.20
2022-11-09T09:24:42.141Z,2.65
2022-11-09T09:26:50.264Z,1.58
2022-11-09T09:28:55.384Z,1.38
2022-11-09T09:31:02.296Z,2.00
2022-11-09T09:33:07.438Z,1.25
2022-11-09T09:35:12.969Z,4.70
2022-11-09T09:37:21.780Z,3.17
2022-11-09T09:39:26.827Z,2.10
2022-11-09T09:41:40.351Z,2.10
2022-11-09T09:43:49.231Z,1.30
2022-11-09T09:45:56.541Z,1.25
2022-11-09T09:48:07.923Z,1.85
2022-11-09T09:50:18.910Z,1.10
2022-11-09T09:52:45.221Z,1.50
2022-11-09T09:55:08.320Z,2.25
2022-11-09T09:57:20.971Z,2.35
2022-11-09T09:59:37.305Z,1.27
2022-11-09T10:03:49.999Z,1.25
2022-11-09T10:06:10.698Z,2.47
2022-11-09T10:08:28.301Z,0.88
2022-11-09T10:15:26.236Z,0.90
2022-11-09T10:17:43.766Z,2.03
2022-11-09T10:20:11.759Z,2.80
2022-11-09T10:22:26.587Z,3.03
2022-11-09T10:27:32.145Z,2.45
2022-11-09T10:29:43.569Z,2.55
2022-11-09T10:31:51.501Z,1.60
2022-11-09T10:34:02.770Z,1.42
2022-11-09T10:36:29.827Z,1.20
2022-11-09T10:38:40.384Z,2.53
2022-11-09T10:41:17.953Z,1.63
2022-11-09T10:43:41.822Z,0.77
2022-11-09T10:46:10.532Z,1.67
2022-11-09T10:48:37.080Z,1.65
2022-11-09T10:51:01.592Z,2.00
2022-11-09T10:53:27.357Z,0.98
2022-11-09T10:55:58.693Z,2.22
2022-11-09T10:58:34.488Z,2.17
2022-11-09T11:01:03.399Z,1.00
2022-11-09T11:03:27.793Z,1.25
2022-11-09T11:06:01.350Z,1.25
2022-11-09T11:08:39.545Z,2.67
2022-11-09T11:11:35.993Z,1.30
2022-11-09T11:14:23.015Z,2.05
2022-11-09T11:16:51.307Z,1.52
2022-11-09T11:19:41.350Z,2.83
2022-11-09T11:22:23.403Z,3.00
2022-11-09T11:24:58.897Z,1.13
2022-11-09T11:27:30.396Z,0.60
2022-11-09T11:30:06.528Z,1.65
2022-11-09T11:32:30.706Z,2.40
2022-11-09T11:35:00.218Z,0.77
2022-11-09T11:37:43.947Z,2.63
2022-11-09T11:40:13.095Z,0.68
2022-11-09T11:43:09.592Z,1.75
2022-11-09T11:45:43.898Z,1.80
2022-11-09T11:48:42.363Z,0.75
2022-11-09T11:51:14.277Z,2.67
2022-11-09T11:54:02.208Z,2.47
2022-11-09T11:56:33.823Z,1.95
2022-11-09T11:59:15.760Z,0.40
2022-11-09T12:01:59.374Z,3.05
2022-11-09T12:07:38.406Z,3.22
2022-11-09T12:10:31.333Z,2.05
2022-11-09T12:13:15.295Z,0.82
2022-11-09T12:15:56.462Z,1.63
2022-11-09T12:18:42.046Z,1.25
2022-11-09T12:21:19.470Z,4.57
2022-11-09T12:24:04.679Z,1.17
2022-11-09T12:26:55.752Z,1.92
2022-11-09T12:29:35.307Z,5.43
2022-11-09T12:32:17.194Z,2.75
2022-11-09T12:34:53.793Z,2.83
2022-11-09T12:37:23.611Z,6.25
2022-11-09T12:39:51.531Z,2.90
2022-11-09T12:42:21.397Z,3.08
2022-11-09T12:44:50.965Z,3.55
2022-11-09T12:47:20.067Z,2.50
2022-11-09T12:49:49.409Z,2.65
2022-11-09T12:54:51.635Z,3.80
2022-11-09T12:57:18.858Z,2.92
2022-11-09T12:59:51.639Z,5.00
2022-11-09T13:02:27.708Z,1.10
2022-11-09T13:05:02.696Z,2.53
2022-11-09T13:07:50.064Z,2.38
2022-11-09T13:10:32.189Z,4.95
2022-11-09T13:13:06.971Z,3.53
2022-11-09T13:15:34.213Z,1.17
2022-11-09T13:18:06.501Z,2.67
2022-11-09T13:20:55.932Z,4.13
2022-11-09T13:26:58.820Z,1.20
2022-11-09T13:29:29.173Z,1.13
2022-11-09T13:32:34.153Z,3.35
2022-11-09T13:34:45.106Z,1.67
2022-11-09T13:37:58.189Z,4.78
2022-11-09T13:40:47.089Z,7.10
2022-11-09T13:43:25.258Z,1.05
2022-11-09T13:45:53.303Z,4.53
2022-11-09T13:51:07.691Z,2.78
2022-11-09T13:53:55.991Z,4.00
2022-11-09T13:56:32.124Z,6.95
2022-11-09T13:59:00.577Z,3.30
2022-11-09T14:01:37.946Z,3.42
2022-11-09T14:04:04.485Z,2.78
2022-11-09T14:06:28.885Z,2.78
2022-11-09T14:08:55.907Z,4.75
2022-11-09T14:14:28.877Z,2.75
2022-11-09T14:17:01.109Z,3.63
2022-11-09T14:19:36.264Z,4.65
2022-11-09T14:22:00.307Z,3.72
2022-11-09T14:24:32.800Z,4.97
2022-11-09T14:27:17.235Z,5.10
2022-11-09T14:29:52.037Z,5.85
2022-11-09T14:32:35.981Z,3.38
2022-11-09T14:35:27.010Z,3.50
2022-11-09T14:37:51.303Z,2.13
2022-11-09T14:40:26.306Z,3.88
2022-11-09T14:42:57.094Z,5.97
2022-11-09T14:45:22.399Z,6.28
2022-11-09T14:47:49.651Z,4.43
2022-11-09T14:50:21.014Z,3.80
2022-11-09T14:52:45.050Z,4.78
2022-11-09T14:55:14.060Z,2.75
2022-11-09T14:57:41.622Z,5.43
2022-11-09T15:00:06.228Z,3.60
2022-11-09T15:02:30.244Z,7.95
2022-11-09T15:05:02.654Z,4.10
2022-11-09T15:07:31.078Z,2.05
2022-11-09T15:09:59.180Z,5.47
2022-11-09T15:12:24.327Z,4.03
2022-11-09T15:14:57.821Z,3.13
2022-11-09T15:17:27.888Z,5.43
2022-11-09T15:19:55.441Z,2.72
2022-11-09T15:25:27.624Z,4.10
2022-11-09T15:28:25.191Z,6.18
2022-11-09T15:31:07.501Z,6.75
2022-11-09T15:33:44.018Z,6.55
2022-11-09T15:36:22.251Z,5.18
2022-11-09T15:38:57.564Z,3.95
2022-11-09T15:41:24.392Z,4.78
2022-11-09T15:43:49.070Z,5.60
2022-11-09T15:46:19.159Z,8.77
2022-11-09T15:48:46.306Z,3.67
2022-11-09T15:53:35.404Z,15.05
2022-11-09T15:56:00.148Z,6.05
2022-11-09T15:58:24.968Z,8.95
2022-11-09T16:00:48.969Z,8.15
2022-11-09T16:03:17.355Z,3.40
2022-11-09T16:05:41.737Z,8.43
2022-11-09T16:08:07.672Z,4.88
2022-11-09T16:10:37.356Z,4.38
2022-11-09T16:13:00.916Z,10.15
2022-11-09T16:15:27.641Z,3.72
2022-11-09T16:17:51.858Z,7.50
2022-11-09T16:20:19.664Z,5.93
2022-11-09T16:22:43.312Z,5.85
2022-11-09T16:25:07.816Z,4.93
2022-11-09T16:30:16.602Z,7.20
2022-11-09T16:32:40.953Z,3.63
2022-11-09T16:37:54.998Z,8.63
2022-11-09T16:40:01.627Z,7.07
2022-11-09T16:42:25.790Z,6.15
2022-11-09T16:44:52.113Z,4.75
2022-11-09T16:47:20.148Z,5.93
2022-11-09T16:49:44.341Z,3.70
2022-11-09T16:52:09.413Z,7.47
2022-11-09T16:54:35.817Z,5.25
2022-11-09T16:57:00.384Z,8.25
2022-11-09T16:59:24.419Z,5.38
2022-11-09T17:01:54.396Z,6.95
2022-11-09T17:04:18.165Z,7.82
2022-11-09T17:06:41.868Z,5.70
2022-11-09T17:09:06.501Z,5.80
2022-11-09T17:11:32.574Z,6.47
2022-11-09T17:14:00.336Z,6.45
2022-11-09T17:16:23.972Z,8.23
2022-11-09T17:18:47.705Z,4.22
2022-11-09T17:21:14.491Z,5.75
2022-11-09T17:23:38.726Z,6.28
2022-11-09T17:26:04.619Z,4.65
2022-11-09T17:28:33.115Z,6.07
2022-11-09T17:30:58.039Z,6.72
2022-11-09T17:33:23.134Z,3.35
2022-11-09T17:35:46.695Z,5.18
2022-11-09T17:38:10.074Z,4.28
2022-11-09T17:40:33.801Z,5.10
2022-11-09T17:42:57.606Z,3.28
2022-11-09T17:45:24.120Z,4.22
2022-11-09T17:47:47.662Z,4.38
2022-11-09T17:50:12.521Z,6.03
2022-11-09T17:52:35.916Z,5.47
2022-11-09T17:54:59.890Z,5.60
2022-11-09T17:57:23.590Z,5.75
2022-11-09T17:59:47.253Z,4.50
2022-11-09T18:02:15.430Z,3.58
2022-11-09T18:04:41.016Z,2.58
2022-11-09T18:07:04.827Z,8.27
2022-11-09T18:09:41.450Z,2.92
2022-11-09T18:12:06.547Z,5.57
2022-11-09T18:14:29.995Z,6.57
2022-11-09T18:16:54.592Z,3.55
2022-11-09T18:19:20.469Z,6.03
2022-11-09T18:21:44.393Z,7.13
2022-11-09T18:24:09.516Z,6.32
2022-11-09T18:26:34.296Z,5.22
2022-11-09T18:28:59.226Z,4.38
2022-11-09T18:31:22.958Z,5.68
2022-11-09T18:33:46.963Z,5.95
2022-11-09T18:36:16.302Z,11.38
2022-11-09T18:38:40.345Z,6.93
2022-11-09T18:41:06.995Z,4.90
2022-11-09T18:43:31.513Z,7.20
2022-11-09T18:45:59.051Z,5.88
2022-11-09T18:48:22.817Z,4.88
2022-11-09T18:50:47.015Z,7.70
2022-11-09T18:53:14.075Z,5.53
2022-11-09T18:55:37.885Z,6.93
2022-11-09T18:58:01.612Z,7.55
2022-11-09T19:00:25.756Z,8.45
2022-11-09T19:02:49.129Z,5.95
2022-11-09T19:05:13.172Z,4.53
2022-11-09T19:07:36.953Z,4.57
2022-11-09T19:10:03.715Z,6.93
2022-11-09T19:12:29.574Z,5.60
2022-11-09T19:14:56.615Z,3.55
2022-11-09T19:17:20.480Z,3.58
2022-11-09T19:19:44.974Z,3.58
2022-11-09T19:22:19.333Z,7.03
2022-11-09T19:24:43.296Z,3.42
2022-11-09T19:27:09.689Z,4.57
2022-11-09T19:29:34.325Z,5.57
2022-11-09T19:31:58.225Z,3.95
2022-11-09T19:34:24.036Z,5.47
2022-11-09T19:36:48.445Z,6.70
2022-11-09T19:39:13.241Z,4.35
2022-11-09T19:41:36.797Z,5.60
2022-11-09T19:44:03.512Z,5.30
2022-11-09T19:48:54.301Z,5.50
2022-11-09T19:51:19.588Z,3.60
2022-11-09T19:53:44.129Z,6.55
2022-11-09T19:56:11.664Z,3.58
2022-11-09T19:58:35.661Z,4.40
2022-11-09T20:01:11.961Z,4.85
2022-11-09T20:03:36.624Z,6.82
2022-11-09T20:06:01.321Z,4.88
2022-11-09T20:08:25.198Z,5.47
2022-11-09T20:10:48.689Z,4.57
2022-11-09T20:13:09.919Z,3.97
2022-11-09T20:15:36.647Z,6.35
2022-11-09T20:18:03.316Z,5.43
2022-11-09T20:20:27.309Z,3.20
2022-11-09T20:22:51.883Z,5.50
2022-11-09T20:25:15.689Z,3.75
2022-11-09T20:27:39.992Z,6.43
2022-11-09T20:30:03.701Z,7.38
2022-11-09T20:32:28.163Z,8.80
2022-11-09T20:34:54.602Z,8.02
2022-11-09T20:37:18.743Z,5.20
2022-11-09T20:39:43.274Z,6.53
2022-11-09T20:42:07.354Z,4.47
2022-11-09T20:44:31.481Z,6.80
2022-11-09T20:46:55.669Z,6.45
2022-11-09T20:49:20.668Z,6.13
2022-11-09T20:51:47.259Z,6.95
2022-11-09T20:54:10.932Z,7.82
2022-11-09T20:56:34.714Z,7.90
2022-11-09T20:58:58.774Z,3.55
2022-11-09T21:01:25.042Z,7.90
2022-11-09T21:03:49.802Z,6.55
2022-11-09T21:06:16.218Z,8.73
2022-11-09T21:08:42.400Z,9.45
2022-11-09T21:11:08.342Z,6.18
2022-11-09T21:13:32.957Z,6.53
2022-11-09T21:15:56.696Z,7.03
2022-11-09T21:18:21.004Z,4.63
2022-11-09T21:20:45.501Z,9.70
2022-11-09T21:23:21.864Z,8.27
2022-11-09T21:26:00.300Z,8.47
2022-11-09T21:28:36.990Z,4.88
2022-11-09T21:31:04.020Z,5.72
2022-11-09T21:33:27.733Z,7.15
2022-11-09T21:35:51.768Z,7.90
2022-11-09T21:38:15.392Z,5.20
2022-11-09T21:40:39.431Z,4.57
2022-11-09T21:43:05.987Z,8.95
2022-11-09T21:45:30.081Z,5.32
2022-11-09T21:47:56.622Z,9.38
2022-11-09T21:50:20.889Z,9.68
2022-11-09T21:52:46.333Z,3.95
2022-11-09T21:55:11.119Z,6.93
2022-11-09T21:57:35.511Z,8.15
2022-11-09T22:00:01.732Z,4.47
2022-11-09T22:02:25.708Z,6.10
2022-11-09T22:04:49.430Z,8.65
2022-11-09T22:07:13.743Z,7.78
2022-11-09T22:10:05.968Z,6.00
2022-11-09T22:12:35.151Z,12.40
2022-11-09T22:15:14.182Z,8.65
2022-11-09T22:17:38.292Z,10.15
2022-11-09T22:20:14.953Z,6.78
2022-11-09T22:22:38.510Z,7.47
2022-11-09T22:25:03.118Z,10.90
2022-11-09T22:27:26.824Z,9.40
2022-11-09T22:29:50.766Z,9.07
2022-11-09T22:32:17.134Z,8.80
2022-11-09T22:34:40.759Z,10.80
2022-11-09T22:37:07.946Z,11.50
2022-11-09T22:39:31.897Z,14.93
2022-11-09T22:41:55.618Z,11.40
2022-11-09T22:44:19.474Z,22.10
2022-11-09T22:46:43.542Z,15.55
2022-11-09T22:49:10.329Z,13.52
2022-11-09T22:51:34.083Z,15.80
2022-11-09T22:53:59.181Z,18.23
2022-11-09T22:56:22.772Z,15.57
2022-11-09T22:58:48.052Z,18.55
2022-11-09T23:01:18.167Z,17.60
2022-11-09T23:03:42.008Z,16.88
2022-11-09T23:06:11.253Z,16.35
2022-11-09T23:08:39.433Z,24.85
2022-11-09T23:11:03.445Z,21.55
2022-11-09T23:13:29.016Z,22.50
2022-11-09T23:15:58.686Z,21.55
2022-11-09T23:18:35.272Z,18.20
2022-11-09T23:21:03.432Z,16.85
2022-11-09T23:23:29.700Z,21.63
2022-11-09T23:25:54.038Z,21.55
2022-11-09T23:28:18.899Z,16.40
2022-11-09T23:30:42.684Z,27.20
2022-11-09T23:33:06.764Z,24.70
2022-11-09T23:35:31.090Z,27.63
2022-11-09T23:38:01.241Z,23.00
2022-11-09T23:40:27.765Z,29.52
2022-11-09T23:42:51.880Z,28.13
2022-11-09T23:45:15.618Z,30.45
2022-11-09T23:47:39.380Z,30.27
2022-11-09T23:50:03.093Z,31.75
2022-11-09T23:52:26.790Z,29.83
2022-11-09T23:54:50.862Z,27.98
2022-11-09T23:57:17.089Z,28.17
2022-11-09T23:59:41.096Z,26.58
